Anacostia, District of Columbia
Current Conditions -  °F | °C
As of 10:52 PM on Tuesday 25 Nov 2014 (Local Time) from KDCA Reporting Station
Overcast Overcast  
Wind Chill: 11°   Ceiling: 16000
Heat Index: 11°   Visibility: 10mi
Dew Point:   Wind: 0mph
Humidity: 54%   Direction: NA
Pressure: 30.17"   Gusts: NA
Location:  38.8618°N, 77.0026°W
Report Text: KDCA 260352Z 00000KT 10SM OVC160 11/02 A3017 RMK AO2 PRESRR SLP216 T01060017
Loading
Personal Weather Stations






























Interactive Weather Map New forecast layout! Learn more

10-Day Weather Forecast

Advertisements
Track Severe Weather on mobile